Time;durP1;ratioP1;P1;durP2;ratioP2;P2;SDS_P1;SDS_P2;PMS_P1;PMS_P2;Temp;Humidity;BMP_temperature;BMP_pressure;BME280_temperature;BME280_humidity;BME280_pressure;Samples;Min_cycle;Max_cycle;Signal;HPM_P1;HPM_P2
2022/08/18 00:01:39;;;;;;;;;;;18.30;99.90;;;;;;5043813;28;19916;-71
2022/08/18 00:04:05;;;;;;;;;;;18.40;99.90;;;;;;5043052;28;19932;-71
2022/08/18 00:06:31;;;;;;;;;;;18.40;99.90;;;;;;5046206;28;19935;-71
2022/08/18 00:08:58;;;;;;;;;;;18.30;99.90;;;;;;5050101;28;19935;-71
2022/08/18 00:11:23;;;;;;;;;;;18.30;99.90;;;;;;5042890;28;19920;-71
2022/08/18 00:13:49;;;;;;;;;;;18.30;99.90;;;;;;5037273;28;19923;-71
2022/08/18 00:16:14;;;;;;;;;;;18.40;99.90;;;;;;5032985;28;19929;-71
2022/08/18 00:18:40;;;;;;;;;;;18.40;99.90;;;;;;5046168;28;19939;-71
2022/08/18 00:21:06;;;;;;;;;;;18.40;99.90;;;;;;5047867;28;19917;-70
2022/08/18 00:23:32;;;;;;;;;;;18.40;99.90;;;;;;5036107;28;19917;-71
2022/08/18 00:25:58;;;;;;;;;;;18.40;99.90;;;;;;5046922;28;19938;-72
2022/08/18 00:28:24;;;;;;;;;;;18.40;99.90;;;;;;5036019;28;19967;-70
2022/08/18 00:30:50;;;;;;;;;;;18.50;99.90;;;;;;5042070;28;20397;-73
2022/08/18 00:33:15;;;;;;;;;;;18.50;99.90;;;;;;5041447;28;19927;-71
2022/08/18 00:35:40;;;;;;;;;;;18.50;99.90;;;;;;5042273;28;19924;-70
2022/08/18 00:38:07;;;;;;;;;;;18.50;99.90;;;;;;5029584;28;20004;-71
2022/08/18 00:40:36;;;;;;;;;;;18.50;99.90;;;;;;5033133;28;19917;-71
2022/08/18 00:43:03;;;;;;;;;;;18.50;99.90;;;;;;5051160;28;20372;-71
2022/08/18 00:45:36;;;;;;;;;;;18.50;99.90;;;;;;5041011;28;19928;-71
2022/08/18 00:48:03;;;;;;;;;;;18.50;99.90;;;;;;5028310;28;19924;-71
2022/08/18 00:50:41;;;;;;;;;;;18.50;99.90;;;;;;5055679;28;19921;-72
2022/08/18 00:53:07;;;;;;;;;;;18.50;99.90;;;;;;5038196;28;20397;-71
2022/08/18 00:55:32;;;;;;;;;;;18.60;99.90;;;;;;5045196;28;19971;-72
2022/08/18 00:58:01;;;;;;;;;;;18.60;99.90;;;;;;5029746;28;19916;-71
2022/08/18 01:00:27;;;;;;;;;;;18.60;99.90;;;;;;5045924;28;20759;-71
2022/08/18 01:02:54;;;;;;;;;;;18.60;99.90;;;;;;5035355;28;20298;-70
2022/08/18 01:05:23;;;;;;;;;;;18.60;99.90;;;;;;5031437;28;22003;-71
2022/08/18 01:07:50;;;;;;;;;;;18.60;99.90;;;;;;5040768;28;19979;-71
2022/08/18 01:10:17;;;;;;;;;;;18.60;99.90;;;;;;5047287;28;19928;-71
2022/08/18 01:12:43;;;;;;;;;;;18.60;99.90;;;;;;5040566;28;19997;-71
2022/08/18 01:15:09;;;;;;;;;;;18.70;99.90;;;;;;5032183;28;19928;-72
2022/08/18 01:23:10;;;;;;;;;;;18.70;99.90;;;;;;5051376;28;19948;-71
2022/08/18 01:28:22;;;;;;;;;;;18.60;99.90;;;;;;5049738;28;20024;-71
2022/08/18 01:30:49;;;;;;;;;;;18.60;99.90;;;;;;5050314;28;20090;-71
2022/08/18 01:33:16;;;;;;;;;;;18.60;99.90;;;;;;5050361;28;19933;-71
2022/08/18 01:35:43;;;;;;;;;;;18.60;99.90;;;;;;5051530;28;20289;-72
2022/08/18 01:38:12;;;;;;;;;;;18.60;99.90;;;;;;5029423;28;19916;-73
2022/08/18 01:40:37;;;;;;;;;;;18.60;99.90;;;;;;5042203;28;20346;-71
2022/08/18 01:43:04;;;;;;;;;;;18.60;99.90;;;;;;5047247;28;19931;-71
2022/08/18 01:45:32;;;;;;;;;;;18.60;99.90;;;;;;5046055;28;19928;-71
2022/08/18 01:47:58;;;;;;;;;;;18.60;99.90;;;;;;5040403;28;20008;-71
2022/08/18 01:50:23;;;;;;;;;;;18.60;99.90;;;;;;5037659;28;19917;-71
2022/08/18 01:52:52;;;;;;;;;;;18.50;99.90;;;;;;5040055;28;19924;-72
2022/08/18 01:55:18;;;;;;;;;;;18.50;99.90;;;;;;5043463;28;20374;-71
2022/08/18 01:57:44;;;;;;;;;;;18.50;99.90;;;;;;5037397;28;19932;-72
2022/08/18 02:00:10;;;;;;;;;;;18.60;99.90;;;;;;5062749;28;19916;-72
2022/08/18 02:02:36;;;;;;;;;;;18.60;99.90;;;;;;5045199;28;20358;-71
2022/08/18 02:05:04;;;;;;;;;;;18.50;99.90;;;;;;5032697;28;19931;-72
2022/08/18 02:07:29;;;;;;;;;;;18.50;99.90;;;;;;5039766;28;20000;-71
2022/08/18 02:09:55;;;;;;;;;;;18.50;99.90;;;;;;5042847;28;20007;-71
2022/08/18 02:12:20;;;;;;;;;;;18.50;99.90;;;;;;5057423;28;19928;-71
2022/08/18 02:14:46;;;;;;;;;;;18.50;99.90;;;;;;5033319;28;19921;-70
2022/08/18 02:17:12;;;;;;;;;;;18.60;99.90;;;;;;5046580;28;19916;-72
2022/08/18 02:19:42;;;;;;;;;;;18.50;99.90;;;;;;5050039;28;19916;-72
2022/08/18 02:22:09;;;;;;;;;;;18.50;99.90;;;;;;5050879;28;20615;-71
2022/08/18 02:24:36;;;;;;;;;;;18.50;99.90;;;;;;5052050;28;19927;-72
2022/08/18 02:27:01;;;;;;;;;;;18.50;99.90;;;;;;5048776;28;20351;-70
2022/08/18 02:29:27;;;;;;;;;;;18.50;99.90;;;;;;5044835;28;19916;-71
2022/08/18 02:31:52;;;;;;;;;;;18.50;99.90;;;;;;5035096;28;20034;-71
2022/08/18 02:34:18;;;;;;;;;;;18.60;99.90;;;;;;5041636;28;19916;-71
2022/08/18 02:36:43;;;;;;;;;;;18.60;99.90;;;;;;5051279;28;19926;-71
2022/08/18 02:39:09;;;;;;;;;;;18.60;99.90;;;;;;5036587;28;20373;-71
2022/08/18 02:41:35;;;;;;;;;;;18.60;99.90;;;;;;5041032;28;19974;-71
2022/08/18 02:44:01;;;;;;;;;;;18.60;99.90;;;;;;5041274;28;19917;-71
2022/08/18 02:46:26;;;;;;;;;;;18.60;99.90;;;;;;5036456;28;19924;-72
2022/08/18 02:48:52;;;;;;;;;;;18.60;99.90;;;;;;5084353;28;19916;-73
2022/08/18 02:51:18;;;;;;;;;;;18.60;99.90;;;;;;5039625;28;19920;-71
2022/08/18 02:53:44;;;;;;;;;;;18.60;99.90;;;;;;5049959;28;20340;-71
2022/08/18 02:56:19;;;;;;;;;;;18.70;99.90;;;;;;5045765;28;19966;-72
2022/08/18 02:58:45;;;;;;;;;;;18.70;99.90;;;;;;5034083;28;19973;-71
2022/08/18 03:01:10;;;;;;;;;;;18.70;99.90;;;;;;5047376;28;19924;-72
2022/08/18 03:03:36;;;;;;;;;;;18.60;99.90;;;;;;5051585;28;19927;-71
2022/08/18 03:06:02;;;;;;;;;;;18.70;99.90;;;;;;5051047;28;19928;-72
2022/08/18 03:08:27;;;;;;;;;;;18.70;99.90;;;;;;5044931;28;20278;-72
2022/08/18 03:10:53;;;;;;;;;;;18.60;99.90;;;;;;5038212;28;19995;-71
2022/08/18 03:13:19;;;;;;;;;;;18.60;99.90;;;;;;5069371;28;19917;-71
2022/08/18 03:15:45;;;;;;;;;;;18.70;99.90;;;;;;5046668;28;19927;-71
2022/08/18 03:18:12;;;;;;;;;;;18.60;99.90;;;;;;5027596;28;19916;-71
2022/08/18 03:20:38;;;;;;;;;;;18.60;99.90;;;;;;5041230;28;19959;-71
2022/08/18 03:23:03;;;;;;;;;;;18.60;99.90;;;;;;5047671;28;20022;-71
2022/08/18 03:25:29;;;;;;;;;;;18.60;99.90;;;;;;5045350;28;19928;-71
2022/08/18 03:27:55;;;;;;;;;;;18.60;99.90;;;;;;5048190;28;20005;-72
2022/08/18 03:30:22;;;;;;;;;;;18.60;99.90;;;;;;5042210;28;19924;-71
2022/08/18 03:32:48;;;;;;;;;;;18.60;99.90;;;;;;5033074;28;20280;-72
2022/08/18 03:35:14;;;;;;;;;;;18.60;99.90;;;;;;5045959;28;19923;-71
2022/08/18 03:37:40;;;;;;;;;;;18.50;99.90;;;;;;5024037;28;19916;-71
2022/08/18 03:40:05;;;;;;;;;;;18.50;99.90;;;;;;5041536;28;19924;-71
2022/08/18 03:42:31;;;;;;;;;;;18.60;99.90;;;;;;5043270;28;20289;-71
2022/08/18 03:44:57;;;;;;;;;;;18.60;99.90;;;;;;5047878;28;19927;-71
2022/08/18 03:47:22;;;;;;;;;;;18.60;99.90;;;;;;5044698;28;19932;-71
2022/08/18 03:49:48;;;;;;;;;;;18.60;99.90;;;;;;5029370;28;19916;-71
2022/08/18 03:52:13;;;;;;;;;;;18.50;99.90;;;;;;5041292;28;20007;-71
2022/08/18 03:54:39;;;;;;;;;;;18.50;99.90;;;;;;5053166;28;19920;-70
2022/08/18 03:57:08;;;;;;;;;;;18.60;99.90;;;;;;5033777;28;20253;-70
2022/08/18 03:59:33;;;;;;;;;;;18.60;99.90;;;;;;5032461;28;19923;-72
2022/08/18 04:02:01;;;;;;;;;;;18.60;99.90;;;;;;5041581;28;19924;-71
2022/08/18 04:04:27;;;;;;;;;;;18.60;99.90;;;;;;5049599;28;19920;-71
2022/08/18 04:06:57;;;;;;;;;;;18.60;99.90;;;;;;5052705;28;20002;-71
2022/08/18 04:09:24;;;;;;;;;;;18.60;99.90;;;;;;5040938;28;20051;-71
2022/08/18 04:11:49;;;;;;;;;;;18.60;99.90;;;;;;5048047;28;19954;-71
2022/08/18 04:14:20;;;;;;;;;;;18.60;99.90;;;;;;5049732;28;19923;-71
2022/08/18 04:16:45;;;;;;;;;;;18.50;99.90;;;;;;5049760;28;19970;-71
2022/08/18 04:19:12;;;;;;;;;;;18.50;99.90;;;;;;5031652;28;19920;-71
2022/08/18 04:21:39;;;;;;;;;;;18.60;99.90;;;;;;5035053;28;19921;-72
2022/08/18 04:24:06;;;;;;;;;;;18.60;99.90;;;;;;5048979;28;19924;-71
2022/08/18 04:26:32;;;;;;;;;;;18.60;99.90;;;;;;5053155;28;20390;-71
2022/08/18 04:29:01;;;;;;;;;;;18.50;99.90;;;;;;5045422;28;19921;-71
2022/08/18 04:31:28;;;;;;;;;;;18.60;99.90;;;;;;5034088;28;19916;-71
2022/08/18 04:33:55;;;;;;;;;;;18.60;99.90;;;;;;5053609;28;19920;-71
2022/08/18 04:36:21;;;;;;;;;;;18.60;99.90;;;;;;5054221;28;19920;-72
2022/08/18 04:38:46;;;;;;;;;;;18.60;99.90;;;;;;5044456;28;20377;-71
2022/08/18 04:41:12;;;;;;;;;;;18.60;99.90;;;;;;5047359;28;19916;-71
2022/08/18 04:43:38;;;;;;;;;;;18.60;99.90;;;;;;5037713;28;20551;-71
2022/08/18 04:46:05;;;;;;;;;;;18.60;99.90;;;;;;5044674;28;20305;-71
2022/08/18 04:48:32;;;;;;;;;;;18.60;99.90;;;;;;5045077;28;19924;-71
2022/08/18 04:51:05;;;;;;;;;;;18.60;99.90;;;;;;5034927;28;19996;-70
2022/08/18 04:53:46;;;;;;;;;;;18.60;99.90;;;;;;5044392;28;19924;-71
2022/08/18 04:56:25;;;;;;;;;;;18.60;99.90;;;;;;5046584;28;19926;-72
2022/08/18 04:58:52;;;;;;;;;;;18.60;99.90;;;;;;5032803;28;19920;-71
2022/08/18 05:01:20;;;;;;;;;;;18.60;99.90;;;;;;5040799;28;19921;-70
2022/08/18 05:03:46;;;;;;;;;;;18.60;99.90;;;;;;5034471;28;19942;-71
2022/08/18 05:06:12;;;;;;;;;;;18.60;99.90;;;;;;5050590;28;20370;-71
2022/08/18 05:08:37;;;;;;;;;;;18.60;99.90;;;;;;5047775;28;19920;-71
2022/08/18 05:11:03;;;;;;;;;;;18.60;99.90;;;;;;5030033;28;20289;-72
2022/08/18 05:13:28;;;;;;;;;;;18.60;99.90;;;;;;5022858;28;19990;-71
2022/08/18 05:15:55;;;;;;;;;;;18.60;99.90;;;;;;5040118;28;19924;-71
2022/08/18 05:18:23;;;;;;;;;;;18.60;99.90;;;;;;5037809;28;20381;-70
2022/08/18 05:20:50;;;;;;;;;;;18.70;99.90;;;;;;5063216;28;20343;-71
2022/08/18 05:23:16;;;;;;;;;;;18.70;99.90;;;;;;5049873;28;20041;-71
2022/08/18 05:25:41;;;;;;;;;;;18.70;99.90;;;;;;5067690;28;19928;-72
2022/08/18 05:28:08;;;;;;;;;;;18.80;99.90;;;;;;5043360;28;19916;-71
2022/08/18 05:30:35;;;;;;;;;;;18.80;99.90;;;;;;5066476;28;19932;-71
2022/08/18 05:33:02;;;;;;;;;;;18.80;99.90;;;;;;5057488;28;20624;-70
2022/08/18 05:35:31;;;;;;;;;;;18.90;99.90;;;;;;5039829;28;19975;-72
2022/08/18 05:38:04;;;;;;;;;;;19.00;99.90;;;;;;5027428;28;19917;-71
2022/08/18 05:40:30;;;;;;;;;;;19.00;99.90;;;;;;5045605;28;19924;-71
2022/08/18 05:42:57;;;;;;;;;;;19.00;99.90;;;;;;5043941;28;19963;-70
2022/08/18 05:45:22;;;;;;;;;;;19.10;99.90;;;;;;5042086;28;20062;-71
2022/08/18 05:47:48;;;;;;;;;;;19.10;99.90;;;;;;5045862;28;20425;-70
2022/08/18 05:50:17;;;;;;;;;;;19.00;99.90;;;;;;5044715;28;19928;-70
2022/08/18 05:52:48;;;;;;;;;;;19.00;99.90;;;;;;5042897;28;20395;-72
2022/08/18 05:58:23;;;;;;;;;;;19.00;99.90;;;;;;5041173;28;20357;-71
2022/08/18 06:00:52;;;;;;;;;;;19.00;99.90;;;;;;5038672;28;19924;-70
2022/08/18 06:03:26;;;;;;;;;;;19.00;99.90;;;;;;5067130;28;19928;-70
2022/08/18 06:05:56;;;;;;;;;;;19.00;99.90;;;;;;5030600;28;19940;-72
2022/08/18 06:08:24;;;;;;;;;;;19.00;99.90;;;;;;5051343;28;19920;-70
2022/08/18 06:10:49;;;;;;;;;;;19.00;99.90;;;;;;5060439;28;19916;-71
2022/08/18 06:13:17;;;;;;;;;;;19.10;99.90;;;;;;5065456;28;20403;-71
2022/08/18 06:15:52;;;;;;;;;;;19.10;99.90;;;;;;5053392;28;20252;-69
2022/08/18 06:18:27;;;;;;;;;;;19.10;99.90;;;;;;5046935;28;20361;-70
2022/08/18 06:21:09;;;;;;;;;;;19.20;99.90;;;;;;5050654;28;19920;-70
2022/08/18 06:23:41;;;;;;;;;;;19.30;99.90;;;;;;5050976;28;19968;-70
2022/08/18 06:26:22;;;;;;;;;;;19.40;99.90;;;;;;5043945;28;19931;-68
2022/08/18 06:29:13;;;;;;;;;;;19.50;99.90;;;;;;5064239;28;20007;-69
2022/08/18 06:31:45;;;;;;;;;;;19.50;99.90;;;;;;5048723;28;19917;-70
2022/08/18 06:34:13;;;;;;;;;;;19.60;99.90;;;;;;5064526;28;19927;-69
2022/08/18 06:36:52;;;;;;;;;;;19.60;99.90;;;;;;5059249;28;20298;-73
2022/08/18 06:39:25;;;;;;;;;;;19.60;99.90;;;;;;5044093;28;19994;-72
2022/08/18 06:41:52;;;;;;;;;;;19.70;99.90;;;;;;5044986;28;19920;-73
2022/08/18 06:44:36;;;;;;;;;;;19.70;99.90;;;;;;5043757;28;19952;-72
2022/08/18 06:47:10;;;;;;;;;;;19.70;99.90;;;;;;5049248;28;19921;-72
2022/08/18 06:49:40;;;;;;;;;;;19.70;99.90;;;;;;5027647;28;19920;-72
2022/08/18 06:52:32;;;;;;;;;;;19.70;99.90;;;;;;5057321;28;19921;-72
2022/08/18 06:54:59;;;;;;;;;;;19.70;99.90;;;;;;5040875;28;19923;-72
2022/08/18 06:57:27;;;;;;;;;;;19.70;99.90;;;;;;5028902;28;19920;-71
2022/08/18 06:59:54;;;;;;;;;;;19.80;99.90;;;;;;5033190;28;19966;-72
2022/08/18 07:02:22;;;;;;;;;;;19.80;99.90;;;;;;5044473;28;20660;-71
2022/08/18 07:05:04;;;;;;;;;;;19.90;99.90;;;;;;5042782;28;20386;-71
2022/08/18 07:07:32;;;;;;;;;;;20.10;99.90;;;;;;5049880;28;19931;-72
2022/08/18 07:09:58;;;;;;;;;;;20.80;99.90;;;;;;5044514;28;19935;-72
2022/08/18 07:12:26;;;;;;;;;;;21.90;99.90;;;;;;5047969;28;20385;-72
2022/08/18 07:14:53;;;;;;;;;;;22.70;99.90;;;;;;5030031;28;19916;-72
2022/08/18 07:17:21;;;;;;;;;;;22.80;99.90;;;;;;5059922;28;19959;-72
2022/08/18 07:19:54;;;;;;;;;;;22.80;99.90;;;;;;5028355;28;19921;-72
2022/08/18 07:22:19;;;;;;;;;;;22.30;99.90;;;;;;5053874;28;19917;-72
2022/08/18 07:24:47;;;;;;;;;;;21.80;99.90;;;;;;5048543;28;20266;-72
2022/08/18 07:27:12;;;;;;;;;;;21.70;99.90;;;;;;5051379;28;19924;-72
2022/08/18 07:29:40;;;;;;;;;;;21.50;99.90;;;;;;5046175;28;19916;-72
2022/08/18 07:32:05;;;;;;;;;;;21.30;99.90;;;;;;5053949;28;20003;-72
2022/08/18 07:34:37;;;;;;;;;;;21.10;99.90;;;;;;5065316;28;20140;-71
2022/08/18 07:37:17;;;;;;;;;;;20.90;99.90;;;;;;5051794;28;19924;-72
2022/08/18 07:39:50;;;;;;;;;;;20.80;99.90;;;;;;5034990;28;19921;-71
2022/08/18 07:42:27;;;;;;;;;;;20.60;99.90;;;;;;5050929;28;19916;-71
2022/08/18 07:45:15;;;;;;;;;;;20.50;99.90;;;;;;5032831;28;19924;-72
2022/08/18 07:47:50;;;;;;;;;;;20.50;99.90;;;;;;5036011;28;19981;-72
2022/08/18 07:50:16;;;;;;;;;;;20.50;99.90;;;;;;5063379;28;19922;-71
2022/08/18 07:52:49;;;;;;;;;;;20.70;99.90;;;;;;5038997;28;20378;-72
2022/08/18 07:55:18;;;;;;;;;;;20.70;99.90;;;;;;5032982;28;19946;-72
2022/08/18 07:57:49;;;;;;;;;;;21.50;99.90;;;;;;5053037;28;20300;-71
2022/08/18 08:00:19;;;;;;;;;;;22.30;99.90;;;;;;5044848;28;20050;-71
2022/08/18 08:02:54;;;;;;;;;;;22.40;99.90;;;;;;5045638;28;20011;-72
2022/08/18 08:05:26;;;;;;;;;;;22.50;99.90;;;;;;5030204;28;20624;-72
2022/08/18 08:07:56;;;;;;;;;;;22.30;99.90;;;;;;5039549;28;19921;-72
2022/08/18 08:10:32;;;;;;;;;;;22.10;99.90;;;;;;5042251;28;19999;-72
2022/08/18 08:13:10;;;;;;;;;;;21.90;99.90;;;;;;5040359;28;19927;-71
2022/08/18 08:16:00;;;;;;;;;;;21.50;99.90;;;;;;5044080;28;20380;-71
2022/08/18 08:18:36;;;;;;;;;;;21.60;99.90;;;;;;5038633;28;20012;-72
2022/08/18 08:21:09;;;;;;;;;;;21.60;99.90;;;;;;5051342;28;20320;-72
2022/08/18 08:23:47;;;;;;;;;;;21.60;99.90;;;;;;5053914;23;20610;-66
2022/08/18 08:26:16;;;;;;;;;;;21.50;99.90;;;;;;5041394;28;19964;-67
2022/08/18 08:28:46;;;;;;;;;;;21.30;99.90;;;;;;5037768;28;19927;-67
2022/08/18 08:31:41;;;;;;;;;;;21.40;99.90;;;;;;5042219;28;19920;-66
2022/08/18 08:34:13;;;;;;;;;;;21.50;99.90;;;;;;5043549;28;20289;-66
2022/08/18 08:36:40;;;;;;;;;;;21.70;99.90;;;;;;5048954;28;19920;-67
2022/08/18 08:39:13;;;;;;;;;;;22.00;99.90;;;;;;5045476;28;19944;-66
2022/08/18 08:41:38;;;;;;;;;;;22.20;99.90;;;;;;5035852;28;19979;-66
2022/08/18 08:44:09;;;;;;;;;;;22.60;99.90;;;;;;5045557;28;20366;-67
2022/08/18 08:46:41;;;;;;;;;;;22.90;99.90;;;;;;5047372;28;19931;-67
2022/08/18 08:49:25;;;;;;;;;;;22.90;99.90;;;;;;5050420;28;19917;-66
2022/08/18 08:51:56;;;;;;;;;;;22.90;99.90;;;;;;5045631;28;20366;-67
2022/08/18 08:54:24;;;;;;;;;;;22.90;99.90;;;;;;5046683;28;19917;-66
2022/08/18 08:56:52;;;;;;;;;;;22.70;99.90;;;;;;5046790;28;19970;-66
2022/08/18 08:59:20;;;;;;;;;;;22.70;99.90;;;;;;5046024;28;20251;-66
2022/08/18 09:02:04;;;;;;;;;;;22.80;99.90;;;;;;5049229;28;19921;-66
2022/08/18 09:04:33;;;;;;;;;;;22.30;99.90;;;;;;5045965;28;19996;-66
2022/08/18 09:07:22;;;;;;;;;;;22.40;99.90;;;;;;5043478;28;19983;-67
2022/08/18 09:10:06;;;;;;;;;;;22.60;99.90;;;;;;5050155;28;20404;-67
2022/08/18 09:12:32;;;;;;;;;;;22.70;99.90;;;;;;5045040;28;19921;-66
2022/08/18 09:15:07;;;;;;;;;;;22.80;99.90;;;;;;5038792;28;19924;-66
2022/08/18 09:17:38;;;;;;;;;;;22.60;99.90;;;;;;5043182;28;19921;-67
2022/08/18 09:20:04;;;;;;;;;;;22.60;99.90;;;;;;5021156;28;20374;-66
2022/08/18 09:22:32;;;;;;;;;;;22.70;99.90;;;;;;5043742;28;20011;-66
2022/08/18 09:24:58;;;;;;;;;;;22.70;99.90;;;;;;5057467;28;19956;-66
2022/08/18 09:27:34;;;;;;;;;;;22.80;99.90;;;;;;5048030;28;19963;-66
2022/08/18 09:30:01;;;;;;;;;;;22.80;99.90;;;;;;5044063;28;19972;-66
2022/08/18 09:32:26;;;;;;;;;;;22.90;99.90;;;;;;5042004;28;20259;-66
2022/08/18 09:35:10;;;;;;;;;;;22.90;99.90;;;;;;5048084;28;19939;-67
2022/08/18 09:37:44;;;;;;;;;;;22.90;99.90;;;;;;5047265;28;20416;-66
2022/08/18 09:43:06;;;;;;;;;;;22.80;99.90;;;;;;5055270;28;19920;-66
2022/08/18 09:45:31;;;;;;;;;;;22.70;99.90;;;;;;5053750;28;19956;-66
2022/08/18 09:47:59;;;;;;;;;;;22.60;99.90;;;;;;5053762;28;20601;-66
2022/08/18 09:50:26;;;;;;;;;;;22.50;99.90;;;;;;5053490;28;19917;-66
2022/08/18 09:52:52;;;;;;;;;;;22.20;99.90;;;;;;5053954;28;19928;-66
2022/08/18 09:55:17;;;;;;;;;;;22.20;99.90;;;;;;5051001;28;19916;-66
2022/08/18 09:57:44;;;;;;;;;;;22.20;99.90;;;;;;5053984;28;20050;-66
2022/08/18 10:00:13;;;;;;;;;;;22.20;99.90;;;;;;5053465;28;20274;-66
2022/08/18 10:02:41;;;;;;;;;;;22.40;99.90;;;;;;5054777;28;20366;-66
2022/08/18 10:05:15;;;;;;;;;;;22.40;99.90;;;;;;5053007;28;19924;-66
2022/08/18 10:07:42;;;;;;;;;;;22.40;99.90;;;;;;5036748;28;19917;-66
2022/08/18 10:10:11;;;;;;;;;;;22.50;99.90;;;;;;5053346;28;20425;-66
2022/08/18 10:13:03;;;;;;;;;;;22.40;99.90;;;;;;5052095;28;20293;-67
2022/08/18 10:15:35;;;;;;;;;;;22.50;99.90;;;;;;5028400;28;19934;-66
2022/08/18 10:18:08;;;;;;;;;;;22.30;99.90;;;;;;5053528;28;20011;-66
2022/08/18 10:20:37;;;;;;;;;;;22.40;99.90;;;;;;5054759;28;19924;-66
2022/08/18 10:23:04;;;;;;;;;;;22.30;99.90;;;;;;5052423;28;19978;-66
2022/08/18 10:25:35;;;;;;;;;;;22.40;99.90;;;;;;5052606;28;20447;-66
2022/08/18 10:28:04;;;;;;;;;;;22.40;99.90;;;;;;5033228;28;19917;-66
2022/08/18 10:30:32;;;;;;;;;;;22.50;99.90;;;;;;5052352;28;19920;-66
2022/08/18 10:33:06;;;;;;;;;;;22.70;99.90;;;;;;5053140;28;20547;-66
2022/08/18 10:35:34;;;;;;;;;;;22.20;99.90;;;;;;5054475;28;19924;-66
2022/08/18 10:38:12;;;;;;;;;;;22.00;99.90;;;;;;5053160;28;20273;-66
2022/08/18 10:40:39;;;;;;;;;;;22.00;99.90;;;;;;5049966;28;19920;-66
2022/08/18 10:43:17;;;;;;;;;;;22.30;99.90;;;;;;5033062;28;19917;-66
2022/08/18 10:45:44;;;;;;;;;;;22.60;99.90;;;;;;5042886;28;19970;-66
2022/08/18 10:48:23;;;;;;;;;;;22.80;99.90;;;;;;5054001;28;19944;-66
2022/08/18 10:51:02;;;;;;;;;;;23.10;99.90;;;;;;5049892;28;19973;-66
2022/08/18 10:53:34;;;;;;;;;;;23.30;99.90;;;;;;5054049;28;19979;-66
2022/08/18 10:56:02;;;;;;;;;;;23.40;99.90;;;;;;5053671;28;19923;-66
2022/08/18 10:58:39;;;;;;;;;;;23.40;99.90;;;;;;5050589;28;20428;-66
2022/08/18 11:01:05;;;;;;;;;;;23.30;99.90;;;;;;5052254;28;19916;-66
2022/08/18 11:03:37;;;;;;;;;;;23.40;99.90;;;;;;5049086;28;19921;-66
2022/08/18 11:06:05;;;;;;;;;;;23.40;99.90;;;;;;5052092;28;19924;-66
2022/08/18 11:08:33;;;;;;;;;;;23.30;99.90;;;;;;5052558;28;20285;-66
2022/08/18 11:11:04;;;;;;;;;;;23.20;99.90;;;;;;5053317;28;19928;-66
2022/08/18 11:13:35;;;;;;;;;;;23.10;99.90;;;;;;5035671;28;20310;-66
2022/08/18 11:16:01;;;;;;;;;;;23.10;99.90;;;;;;5041389;28;19966;-66
2022/08/18 11:18:27;;;;;;;;;;;22.90;99.90;;;;;;5052071;28;20366;-66
2022/08/18 11:21:13;;;;;;;;;;;23.00;99.90;;;;;;5049619;28;19921;-65
2022/08/18 11:23:38;;;;;;;;;;;22.70;99.90;;;;;;5048596;28;20071;-65
2022/08/18 11:26:14;;;;;;;;;;;22.80;99.90;;;;;;5051947;28;20025;-65
2022/08/18 11:28:39;;;;;;;;;;;22.70;99.90;;;;;;5053022;28;19963;-64
2022/08/18 11:31:05;;;;;;;;;;;23.00;99.90;;;;;;5052515;28;19974;-65
2022/08/18 11:33:31;;;;;;;;;;;23.10;99.90;;;;;;5051404;28;19924;-65
2022/08/18 11:35:58;;;;;;;;;;;22.90;99.90;;;;;;5048103;28;20372;-65
2022/08/18 11:38:25;;;;;;;;;;;23.20;99.90;;;;;;5052959;28;20006;-65
2022/08/18 11:40:54;;;;;;;;;;;23.30;99.90;;;;;;5046105;28;19921;-65
2022/08/18 11:43:22;;;;;;;;;;;23.50;99.90;;;;;;5050496;28;19920;-65
2022/08/18 11:45:53;;;;;;;;;;;23.50;99.90;;;;;;5051852;28;19931;-66
2022/08/18 11:48:21;;;;;;;;;;;23.50;99.90;;;;;;5037178;28;20020;-64
2022/08/18 11:50:55;;;;;;;;;;;23.70;99.90;;;;;;5046559;28;20370;-64
2022/08/18 11:53:23;;;;;;;;;;;23.70;99.90;;;;;;5051358;28;19970;-64
2022/08/18 11:56:07;;;;;;;;;;;23.90;99.90;;;;;;5052666;28;19916;-64
2022/08/18 11:58:46;;;;;;;;;;;23.90;99.90;;;;;;5025063;28;20366;-64
2022/08/18 12:01:32;;;;;;;;;;;23.30;99.90;;;;;;5048345;28;19940;-64
2022/08/18 12:04:05;;;;;;;;;;;23.30;99.90;;;;;;5044182;28;20025;-65
2022/08/18 12:06:31;;;;;;;;;;;23.50;99.90;;;;;;5051428;28;19968;-64
2022/08/18 12:09:03;;;;;;;;;;;23.50;99.90;;;;;;5028754;28;20400;-64
2022/08/18 12:11:30;;;;;;;;;;;23.40;99.90;;;;;;5047160;28;19931;-64
2022/08/18 12:14:07;;;;;;;;;;;23.20;99.90;;;;;;5051409;28;19931;-65
2022/08/18 12:16:32;;;;;;;;;;;23.60;99.90;;;;;;5042249;28;19921;-64
2022/08/18 12:18:58;;;;;;;;;;;23.80;99.90;;;;;;5041871;28;19928;-65
2022/08/18 12:21:24;;;;;;;;;;;23.80;99.90;;;;;;5048842;28;19917;-64
2022/08/18 12:23:49;;;;;;;;;;;24.00;99.90;;;;;;5042189;28;19928;-64
2022/08/18 12:26:15;;;;;;;;;;;23.90;99.90;;;;;;5046144;28;20597;-64
2022/08/18 12:28:41;;;;;;;;;;;24.00;99.90;;;;;;5042153;28;19917;-64
2022/08/18 12:31:07;;;;;;;;;;;23.60;99.90;;;;;;5042483;28;19921;-65
2022/08/18 12:33:34;;;;;;;;;;;24.20;99.90;;;;;;5040225;28;19963;-65
2022/08/18 12:36:00;;;;;;;;;;;24.30;99.90;;;;;;5049567;28;19917;-64
2022/08/18 12:38:25;;;;;;;;;;;24.00;99.90;;;;;;5051431;28;19951;-65
2022/08/18 12:40:51;;;;;;;;;;;23.50;99.90;;;;;;5048345;28;19916;-64
2022/08/18 12:43:17;;;;;;;;;;;23.90;99.90;;;;;;5050005;28;20313;-65
2022/08/18 12:45:43;;;;;;;;;;;24.20;99.90;;;;;;5050918;28;19921;-65
2022/08/18 12:48:08;;;;;;;;;;;24.20;99.90;;;;;;5049552;28;19928;-64
2022/08/18 12:50:35;;;;;;;;;;;24.10;99.90;;;;;;5049379;28;19921;-64
2022/08/18 12:53:01;;;;;;;;;;;24.10;99.90;;;;;;5049812;28;19916;-65
2022/08/18 12:55:27;;;;;;;;;;;24.00;99.90;;;;;;5050739;28;19917;-65
2022/08/18 12:57:52;;;;;;;;;;;23.90;99.90;;;;;;5040948;28;19952;-65
2022/08/18 13:00:19;;;;;;;;;;;23.90;99.90;;;;;;5050725;28;20282;-64
2022/08/18 13:02:45;;;;;;;;;;;23.60;99.90;;;;;;5047744;28;20396;-65
2022/08/18 13:05:11;;;;;;;;;;;23.70;99.90;;;;;;5048329;28;20023;-65
2022/08/18 13:07:36;;;;;;;;;;;23.80;99.90;;;;;;5043376;28;19928;-65
2022/08/18 13:10:02;;;;;;;;;;;23.70;99.90;;;;;;5047445;28;20424;-65
2022/08/18 13:12:28;;;;;;;;;;;23.30;99.90;;;;;;5049484;28;19923;-64
2022/08/18 13:14:53;;;;;;;;;;;23.30;99.90;;;;;;5053074;28;20358;-64
2022/08/18 13:17:19;;;;;;;;;;;23.00;99.90;;;;;;5047692;28;19944;-65
2022/08/18 13:19:45;;;;;;;;;;;23.30;99.90;;;;;;5055010;28;20267;-64
2022/08/18 13:22:11;;;;;;;;;;;23.40;99.90;;;;;;5056418;28;19916;-65
2022/08/18 13:24:36;;;;;;;;;;;23.30;99.90;;;;;;5057231;28;19921;-65
2022/08/18 13:27:02;;;;;;;;;;;23.40;99.90;;;;;;5052847;28;19966;-64
2022/08/18 13:29:27;;;;;;;;;;;23.50;99.90;;;;;;5052699;28;19932;-64
2022/08/18 13:31:57;;;;;;;;;;;23.80;99.90;;;;;;5055864;28;19927;-65
2022/08/18 13:34:30;;;;;;;;;;;23.80;99.90;;;;;;5055789;28;19931;-66
2022/08/18 13:36:55;;;;;;;;;;;23.90;99.90;;;;;;5053970;28;19923;-65
2022/08/18 13:39:22;;;;;;;;;;;23.80;99.90;;;;;;5055754;28;19921;-65
2022/08/18 13:41:50;;;;;;;;;;;24.00;99.90;;;;;;5053406;28;19917;-65
2022/08/18 13:44:17;;;;;;;;;;;23.70;99.90;;;;;;5055427;28;19921;-66
2022/08/18 13:46:46;;;;;;;;;;;23.50;99.90;;;;;;5051811;28;20032;-66
2022/08/18 13:49:12;;;;;;;;;;;23.90;99.90;;;;;;5042125;28;19947;-65
2022/08/18 13:51:38;;;;;;;;;;;23.80;99.90;;;;;;5052600;28;20437;-65
2022/08/18 13:54:04;;;;;;;;;;;23.90;99.90;;;;;;5054233;28;20394;-66
2022/08/18 13:56:29;;;;;;;;;;;23.80;99.90;;;;;;5050619;28;19927;-65
2022/08/18 13:58:55;;;;;;;;;;;23.50;99.90;;;;;;5052862;28;19921;-65
2022/08/18 14:01:20;;;;;;;;;;;23.60;99.90;;;;;;5045744;28;20277;-64
2022/08/18 14:03:46;;;;;;;;;;;23.90;99.90;;;;;;5047528;28;19923;-65
2022/08/18 14:06:12;;;;;;;;;;;24.10;99.90;;;;;;5050871;28;19924;-65
2022/08/18 14:08:38;;;;;;;;;;;23.70;99.90;;;;;;5051115;28;19924;-66
2022/08/18 14:11:04;;;;;;;;;;;23.80;99.90;;;;;;5053604;28;19921;-64
2022/08/18 14:13:30;;;;;;;;;;;24.00;99.90;;;;;;5051247;28;19916;-64
2022/08/18 14:15:57;;;;;;;;;;;23.90;99.90;;;;;;5052738;28;19929;-64
2022/08/18 14:18:22;;;;;;;;;;;24.10;99.90;;;;;;5047848;28;20390;-65
2022/08/18 14:26:49;;;;;;;;;;;23.90;99.90;;;;;;5019136;28;20298;-65
2022/08/18 14:29:15;;;;;;;;;;;23.50;99.90;;;;;;5046523;28;19921;-65
2022/08/18 14:31:40;;;;;;;;;;;23.90;99.90;;;;;;5047372;28;19924;-65
2022/08/18 14:34:06;;;;;;;;;;;24.20;99.90;;;;;;5050588;28;20380;-65
2022/08/18 14:36:32;;;;;;;;;;;24.20;99.90;;;;;;5035116;28;20456;-65
2022/08/18 14:39:01;;;;;;;;;;;24.30;99.90;;;;;;5044767;28;19916;-65
2022/08/18 14:41:27;;;;;;;;;;;24.40;99.90;;;;;;5052411;28;19956;-65
2022/08/18 14:43:55;;;;;;;;;;;24.40;99.90;;;;;;5049218;28;19967;-65
2022/08/18 14:46:21;;;;;;;;;;;24.40;99.90;;;;;;5046326;28;19978;-66